sensor_id;sensor_type;location;lat;lon;timestamp;P1;durP1;ratioP1;P2;durP2;ratioP2
56401;SDS011;42299;35.160;26.100;2022-09-19T00:01:09;8.60;;;2.00;;
56401;SDS011;42299;35.160;26.100;2022-09-19T00:02:32;8.40;;;2.40;;
56401;SDS011;42299;35.160;26.100;2022-09-19T00:03:55;7.82;;;1.92;;
56401;SDS011;42299;35.160;26.100;2022-09-19T00:05:18;11.02;;;2.60;;
56401;SDS011;42299;35.160;26.100;2022-09-19T00:06:40;6.70;;;2.50;;
56401;SDS011;42299;35.160;26.100;2022-09-19T00:08:03;7.15;;;2.38;;
56401;SDS011;42299;35.160;26.100;2022-09-19T00:09:26;5.55;;;2.28;;
56401;SDS011;42299;35.160;26.100;2022-09-19T00:10:50;8.55;;;1.98;;
56401;SDS011;42299;35.160;26.100;2022-09-19T00:12:12;9.68;;;2.40;;
56401;SDS011;42299;35.160;26.100;2022-09-19T00:13:36;5.43;;;1.80;;
56401;SDS011;42299;35.160;26.100;2022-09-19T00:15:06;7.25;;;2.15;;
56401;SDS011;42299;35.160;26.100;2022-09-19T00:16:30;7.63;;;2.10;;
56401;SDS011;42299;35.160;26.100;2022-09-19T00:17:53;12.52;;;3.17;;
56401;SDS011;42299;35.160;26.100;2022-09-19T00:19:16;8.85;;;2.40;;
56401;SDS011;42299;35.160;26.100;2022-09-19T00:20:38;6.85;;;2.15;;
56401;SDS011;42299;35.160;26.100;2022-09-19T00:22:01;8.10;;;2.30;;
56401;SDS011;42299;35.160;26.100;2022-09-19T00:23:25;6.40;;;1.88;;
56401;SDS011;42299;35.160;26.100;2022-09-19T00:25:05;10.60;;;1.80;;
56401;SDS011;42299;35.160;26.100;2022-09-19T00:26:27;6.70;;;1.90;;
56401;SDS011;42299;35.160;26.100;2022-09-19T00:27:50;7.88;;;2.47;;
56401;SDS011;42299;35.160;26.100;2022-09-19T00:29:14;9.70;;;2.40;;
56401;SDS011;42299;35.160;26.100;2022-09-19T00:30:37;7.82;;;2.00;;
56401;SDS011;42299;35.160;26.100;2022-09-19T00:32:01;5.85;;;2.05;;
56401;SDS011;42299;35.160;26.100;2022-09-19T00:33:28;9.95;;;2.20;;
56401;SDS011;42299;35.160;26.100;2022-09-19T00:34:51;4.15;;;1.92;;
56401;SDS011;42299;35.160;26.100;2022-09-19T00:36:17;7.20;;;2.05;;
56401;SDS011;42299;35.160;26.100;2022-09-19T00:37:38;6.32;;;2.00;;
56401;SDS011;42299;35.160;26.100;2022-09-19T00:39:01;5.97;;;2.00;;
56401;SDS011;42299;35.160;26.100;2022-09-19T00:40:25;6.30;;;2.05;;
56401;SDS011;42299;35.160;26.100;2022-09-19T00:41:46;7.60;;;1.80;;
56401;SDS011;42299;35.160;26.100;2022-09-19T00:43:09;7.78;;;2.15;;
56401;SDS011;42299;35.160;26.100;2022-09-19T00:44:54;5.18;;;2.35;;
56401;SDS011;42299;35.160;26.100;2022-09-19T00:46:19;5.85;;;2.05;;
56401;SDS011;42299;35.160;26.100;2022-09-19T00:47:44;8.20;;;2.03;;
56401;SDS011;42299;35.160;26.100;2022-09-19T00:49:09;7.53;;;2.13;;
56401;SDS011;42299;35.160;26.100;2022-09-19T00:50:35;6.10;;;2.42;;
56401;SDS011;42299;35.160;26.100;2022-09-19T00:51:58;7.88;;;2.13;;
56401;SDS011;42299;35.160;26.100;2022-09-19T00:53:23;4.25;;;1.83;;
56401;SDS011;42299;35.160;26.100;2022-09-19T00:54:46;9.07;;;2.05;;
56401;SDS011;42299;35.160;26.100;2022-09-19T00:56:10;8.30;;;1.92;;
56401;SDS011;42299;35.160;26.100;2022-09-19T00:57:39;9.23;;;1.88;;
56401;SDS011;42299;35.160;26.100;2022-09-19T00:59:07;5.18;;;2.13;;
56401;SDS011;42299;35.160;26.100;2022-09-19T01:00:33;7.53;;;2.15;;
56401;SDS011;42299;35.160;26.100;2022-09-19T01:01:55;12.63;;;2.53;;
56401;SDS011;42299;35.160;26.100;2022-09-19T01:03:19;8.07;;;2.20;;
56401;SDS011;42299;35.160;26.100;2022-09-19T01:04:45;7.13;;;2.25;;
56401;SDS011;42299;35.160;26.100;2022-09-19T01:06:11;12.23;;;2.92;;
56401;SDS011;42299;35.160;26.100;2022-09-19T01:07:51;4.72;;;1.98;;
56401;SDS011;42299;35.160;26.100;2022-09-19T01:09:28;6.63;;;2.20;;
56401;SDS011;42299;35.160;26.100;2022-09-19T01:11:10;8.73;;;1.85;;
56401;SDS011;42299;35.160;26.100;2022-09-19T01:12:46;6.47;;;2.10;;
56401;SDS011;42299;35.160;26.100;2022-09-19T01:14:18;4.97;;;1.83;;
56401;SDS011;42299;35.160;26.100;2022-09-19T01:15:51;9.98;;;2.50;;
56401;SDS011;42299;35.160;26.100;2022-09-19T01:17:22;7.82;;;2.00;;
56401;SDS011;42299;35.160;26.100;2022-09-19T01:18:50;7.47;;;2.13;;
56401;SDS011;42299;35.160;26.100;2022-09-19T01:22:20;5.93;;;1.92;;
56401;SDS011;42299;35.160;26.100;2022-09-19T01:23:54;8.48;;;1.67;;
56401;SDS011;42299;35.160;26.100;2022-09-19T01:25:40;11.80;;;1.98;;
56401;SDS011;42299;35.160;26.100;2022-09-19T01:27:15;6.53;;;2.00;;
56401;SDS011;42299;35.160;26.100;2022-09-19T01:28:57;8.80;;;2.20;;
56401;SDS011;42299;35.160;26.100;2022-09-19T01:30:21;7.32;;;2.38;;
56401;SDS011;42299;35.160;26.100;2022-09-19T01:31:45;10.55;;;2.33;;
56401;SDS011;42299;35.160;26.100;2022-09-19T01:33:10;8.20;;;2.35;;
56401;SDS011;42299;35.160;26.100;2022-09-19T01:34:43;5.80;;;1.77;;
56401;SDS011;42299;35.160;26.100;2022-09-19T01:36:10;6.35;;;1.77;;
56401;SDS011;42299;35.160;26.100;2022-09-19T01:37:36;8.23;;;2.13;;
56401;SDS011;42299;35.160;26.100;2022-09-19T01:39:04;6.57;;;1.65;;
56401;SDS011;42299;35.160;26.100;2022-09-19T01:40:37;7.75;;;1.73;;
56401;SDS011;42299;35.160;26.100;2022-09-19T01:42:02;5.95;;;2.17;;
56401;SDS011;42299;35.160;26.100;2022-09-19T01:43:26;7.88;;;1.88;;
56401;SDS011;42299;35.160;26.100;2022-09-19T01:44:49;7.50;;;1.95;;
56401;SDS011;42299;35.160;26.100;2022-09-19T01:46:15;5.40;;;2.50;;
56401;SDS011;42299;35.160;26.100;2022-09-19T01:47:47;5.45;;;2.00;;
56401;SDS011;42299;35.160;26.100;2022-09-19T01:49:24;4.68;;;2.28;;
56401;SDS011;42299;35.160;26.100;2022-09-19T01:51:02;9.52;;;2.58;;
56401;SDS011;42299;35.160;26.100;2022-09-19T01:52:43;5.50;;;1.77;;
56401;SDS011;42299;35.160;26.100;2022-09-19T01:54:33;9.95;;;1.75;;
56401;SDS011;42299;35.160;26.100;2022-09-19T01:56:08;8.63;;;1.90;;
56401;SDS011;42299;35.160;26.100;2022-09-19T01:57:35;9.20;;;2.22;;
56401;SDS011;42299;35.160;26.100;2022-09-19T01:59:15;10.05;;;2.50;;
56401;SDS011;42299;35.160;26.100;2022-09-19T02:00:48;5.60;;;1.73;;
56401;SDS011;42299;35.160;26.100;2022-09-19T02:02:19;8.57;;;1.90;;
56401;SDS011;42299;35.160;26.100;2022-09-19T02:03:50;4.97;;;2.10;;
56401;SDS011;42299;35.160;26.100;2022-09-19T02:05:19;7.60;;;2.10;;
56401;SDS011;42299;35.160;26.100;2022-09-19T02:06:49;7.95;;;2.72;;
56401;SDS011;42299;35.160;26.100;2022-09-19T02:08:15;9.10;;;2.00;;
56401;SDS011;42299;35.160;26.100;2022-09-19T02:09:43;11.57;;;2.38;;
56401;SDS011;42299;35.160;26.100;2022-09-19T02:11:13;7.07;;;1.92;;
56401;SDS011;42299;35.160;26.100;2022-09-19T02:12:39;4.78;;;1.83;;
56401;SDS011;42299;35.160;26.100;2022-09-19T02:14:16;7.93;;;2.38;;
56401;SDS011;42299;35.160;26.100;2022-09-19T02:15:51;9.25;;;2.20;;
56401;SDS011;42299;35.160;26.100;2022-09-19T02:17:18;9.02;;;2.22;;
56401;SDS011;42299;35.160;26.100;2022-09-19T02:18:46;6.50;;;1.85;;
56401;SDS011;42299;35.160;26.100;2022-09-19T02:20:17;6.85;;;1.98;;
56401;SDS011;42299;35.160;26.100;2022-09-19T02:21:43;7.18;;;1.65;;
56401;SDS011;42299;35.160;26.100;2022-09-19T02:23:11;4.63;;;1.83;;
56401;SDS011;42299;35.160;26.100;2022-09-19T02:24:42;7.43;;;2.22;;
56401;SDS011;42299;35.160;26.100;2022-09-19T02:26:06;6.57;;;1.88;;
56401;SDS011;42299;35.160;26.100;2022-09-19T02:27:36;7.45;;;2.63;;
56401;SDS011;42299;35.160;26.100;2022-09-19T02:29:04;7.68;;;2.10;;
56401;SDS011;42299;35.160;26.100;2022-09-19T02:30:31;6.60;;;2.80;;
56401;SDS011;42299;35.160;26.100;2022-09-19T02:31:54;6.50;;;2.25;;
56401;SDS011;42299;35.160;26.100;2022-09-19T02:33:17;5.07;;;1.70;;
56401;SDS011;42299;35.160;26.100;2022-09-19T02:34:39;7.53;;;2.35;;
56401;SDS011;42299;35.160;26.100;2022-09-19T02:36:05;7.47;;;2.03;;
56401;SDS011;42299;35.160;26.100;2022-09-19T02:37:34;8.32;;;2.20;;
56401;SDS011;42299;35.160;26.100;2022-09-19T02:39:06;6.35;;;2.22;;
56401;SDS011;42299;35.160;26.100;2022-09-19T02:40:50;10.02;;;2.30;;
56401;SDS011;42299;35.160;26.100;2022-09-19T02:42:21;8.52;;;2.17;;
56401;SDS011;42299;35.160;26.100;2022-09-19T02:43:52;5.72;;;2.17;;
56401;SDS011;42299;35.160;26.100;2022-09-19T02:45:23;4.53;;;1.83;;
56401;SDS011;42299;35.160;26.100;2022-09-19T02:48:26;8.73;;;2.40;;
56401;SDS011;42299;35.160;26.100;2022-09-19T02:49:54;7.35;;;2.13;;
56401;SDS011;42299;35.160;26.100;2022-09-19T02:51:20;6.85;;;2.22;;
56401;SDS011;42299;35.160;26.100;2022-09-19T02:52:48;9.70;;;2.30;;
56401;SDS011;42299;35.160;26.100;2022-09-19T02:54:17;6.97;;;2.63;;
56401;SDS011;42299;35.160;26.100;2022-09-19T02:55:43;7.25;;;2.40;;
56401;SDS011;42299;35.160;26.100;2022-09-19T02:57:10;8.13;;;2.40;;
56401;SDS011;42299;35.160;26.100;2022-09-19T02:58:37;9.00;;;2.22;;
56401;SDS011;42299;35.160;26.100;2022-09-19T03:00:04;5.90;;;2.00;;
56401;SDS011;42299;35.160;26.100;2022-09-19T03:01:31;9.02;;;1.83;;
56401;SDS011;42299;35.160;26.100;2022-09-19T03:02:59;8.05;;;2.08;;
56401;SDS011;42299;35.160;26.100;2022-09-19T03:04:50;5.68;;;2.08;;
56401;SDS011;42299;35.160;26.100;2022-09-19T03:06:17;8.48;;;2.40;;
56401;SDS011;42299;35.160;26.100;2022-09-19T03:07:42;13.60;;;3.58;;
56401;SDS011;42299;35.160;26.100;2022-09-19T03:09:11;9.82;;;2.50;;
56401;SDS011;42299;35.160;26.100;2022-09-19T03:10:37;7.28;;;2.00;;
56401;SDS011;42299;35.160;26.100;2022-09-19T03:12:26;6.85;;;2.95;;
56401;SDS011;42299;35.160;26.100;2022-09-19T03:13:59;5.93;;;2.22;;
56401;SDS011;42299;35.160;26.100;2022-09-19T03:15:22;6.88;;;2.00;;
56401;SDS011;42299;35.160;26.100;2022-09-19T03:16:50;8.18;;;2.38;;
56401;SDS011;42299;35.160;26.100;2022-09-19T03:18:19;6.50;;;2.20;;
56401;SDS011;42299;35.160;26.100;2022-09-19T03:19:44;10.27;;;2.47;;
56401;SDS011;42299;35.160;26.100;2022-09-19T03:21:09;8.93;;;2.53;;
56401;SDS011;42299;35.160;26.100;2022-09-19T03:22:34;5.05;;;2.30;;
56401;SDS011;42299;35.160;26.100;2022-09-19T03:23:57;7.65;;;2.60;;
56401;SDS011;42299;35.160;26.100;2022-09-19T03:25:20;8.40;;;2.35;;
56401;SDS011;42299;35.160;26.100;2022-09-19T03:26:47;7.35;;;2.47;;
56401;SDS011;42299;35.160;26.100;2022-09-19T03:29:31;9.70;;;2.97;;
56401;SDS011;42299;35.160;26.100;2022-09-19T03:30:54;8.13;;;2.30;;
56401;SDS011;42299;35.160;26.100;2022-09-19T03:32:20;8.05;;;2.40;;
56401;SDS011;42299;35.160;26.100;2022-09-19T03:33:47;6.35;;;2.33;;
56401;SDS011;42299;35.160;26.100;2022-09-19T03:35:09;9.15;;;2.65;;
56401;SDS011;42299;35.160;26.100;2022-09-19T03:36:32;8.43;;;2.60;;
56401;SDS011;42299;35.160;26.100;2022-09-19T03:37:57;9.75;;;2.22;;
56401;SDS011;42299;35.160;26.100;2022-09-19T03:39:18;7.13;;;2.58;;
56401;SDS011;42299;35.160;26.100;2022-09-19T03:40:43;8.75;;;3.15;;
56401;SDS011;42299;35.160;26.100;2022-09-19T03:42:06;8.07;;;2.45;;
56401;SDS011;42299;35.160;26.100;2022-09-19T03:43:28;12.20;;;2.95;;
56401;SDS011;42299;35.160;26.100;2022-09-19T03:44:50;7.22;;;2.42;;
56401;SDS011;42299;35.160;26.100;2022-09-19T03:46:14;9.50;;;2.10;;
56401;SDS011;42299;35.160;26.100;2022-09-19T03:47:40;6.50;;;1.88;;
56401;SDS011;42299;35.160;26.100;2022-09-19T03:49:04;7.13;;;2.08;;
56401;SDS011;42299;35.160;26.100;2022-09-19T03:50:25;7.68;;;2.28;;
56401;SDS011;42299;35.160;26.100;2022-09-19T03:51:59;6.65;;;2.10;;
56401;SDS011;42299;35.160;26.100;2022-09-19T03:53:22;20.98;;;3.70;;
56401;SDS011;42299;35.160;26.100;2022-09-19T03:54:44;9.80;;;2.28;;
56401;SDS011;42299;35.160;26.100;2022-09-19T03:56:07;5.18;;;2.10;;
56401;SDS011;42299;35.160;26.100;2022-09-19T03:57:30;7.72;;;2.17;;
56401;SDS011;42299;35.160;26.100;2022-09-19T03:58:52;6.65;;;2.30;;
56401;SDS011;42299;35.160;26.100;2022-09-19T04:00:14;9.07;;;2.30;;
56401;SDS011;42299;35.160;26.100;2022-09-19T04:01:39;9.52;;;3.05;;
56401;SDS011;42299;35.160;26.100;2022-09-19T04:03:02;9.32;;;2.35;;
56401;SDS011;42299;35.160;26.100;2022-09-19T04:04:26;8.90;;;2.00;;
56401;SDS011;42299;35.160;26.100;2022-09-19T04:05:51;6.07;;;2.60;;
56401;SDS011;42299;35.160;26.100;2022-09-19T04:07:14;6.32;;;2.13;;
56401;SDS011;42299;35.160;26.100;2022-09-19T04:08:38;8.10;;;2.00;;
56401;SDS011;42299;35.160;26.100;2022-09-19T04:09:59;6.38;;;2.30;;
56401;SDS011;42299;35.160;26.100;2022-09-19T04:11:23;7.95;;;2.15;;
56401;SDS011;42299;35.160;26.100;2022-09-19T04:12:45;8.57;;;2.92;;
56401;SDS011;42299;35.160;26.100;2022-09-19T04:14:09;12.10;;;2.60;;
56401;SDS011;42299;35.160;26.100;2022-09-19T04:15:33;11.02;;;2.80;;
56401;SDS011;42299;35.160;26.100;2022-09-19T04:16:58;8.18;;;2.53;;
56401;SDS011;42299;35.160;26.100;2022-09-19T04:18:21;8.20;;;2.25;;
56401;SDS011;42299;35.160;26.100;2022-09-19T04:19:45;8.05;;;2.13;;
56401;SDS011;42299;35.160;26.100;2022-09-19T04:21:17;9.10;;;2.30;;
56401;SDS011;42299;35.160;26.100;2022-09-19T04:22:42;6.32;;;2.65;;
56401;SDS011;42299;35.160;26.100;2022-09-19T04:24:30;9.07;;;2.13;;
56401;SDS011;42299;35.160;26.100;2022-09-19T04:26:07;7.60;;;2.15;;
56401;SDS011;42299;35.160;26.100;2022-09-19T04:27:32;7.07;;;2.10;;
56401;SDS011;42299;35.160;26.100;2022-09-19T04:28:55;10.98;;;2.40;;
56401;SDS011;42299;35.160;26.100;2022-09-19T04:30:18;7.03;;;1.98;;
56401;SDS011;42299;35.160;26.100;2022-09-19T04:31:43;6.00;;;2.20;;
56401;SDS011;42299;35.160;26.100;2022-09-19T04:33:06;5.20;;;1.92;;
56401;SDS011;42299;35.160;26.100;2022-09-19T04:34:31;11.27;;;2.67;;
56401;SDS011;42299;35.160;26.100;2022-09-19T04:35:57;7.40;;;2.17;;
56401;SDS011;42299;35.160;26.100;2022-09-19T04:37:23;13.02;;;5.18;;
56401;SDS011;42299;35.160;26.100;2022-09-19T04:38:53;20.65;;;9.63;;
56401;SDS011;42299;35.160;26.100;2022-09-19T04:40:21;26.33;;;11.70;;
56401;SDS011;42299;35.160;26.100;2022-09-19T04:43:06;37.88;;;18.17;;
56401;SDS011;42299;35.160;26.100;2022-09-19T04:44:29;24.08;;;9.68;;
56401;SDS011;42299;35.160;26.100;2022-09-19T04:45:59;17.80;;;7.75;;
56401;SDS011;42299;35.160;26.100;2022-09-19T04:47:36;10.65;;;3.53;;
56401;SDS011;42299;35.160;26.100;2022-09-19T04:49:00;41.95;;;16.98;;
56401;SDS011;42299;35.160;26.100;2022-09-19T04:50:28;43.97;;;18.92;;
56401;SDS011;42299;35.160;26.100;2022-09-19T04:51:53;72.90;;;27.33;;
56401;SDS011;42299;35.160;26.100;2022-09-19T04:53:17;69.43;;;27.40;;
56401;SDS011;42299;35.160;26.100;2022-09-19T04:54:42;43.08;;;17.77;;
56401;SDS011;42299;35.160;26.100;2022-09-19T04:56:06;36.47;;;14.15;;
56401;SDS011;42299;35.160;26.100;2022-09-19T04:57:30;23.95;;;9.90;;
56401;SDS011;42299;35.160;26.100;2022-09-19T04:59:00;17.10;;;5.18;;
56401;SDS011;42299;35.160;26.100;2022-09-19T05:00:24;15.57;;;5.28;;
56401;SDS011;42299;35.160;26.100;2022-09-19T05:02:08;23.33;;;10.00;;
56401;SDS011;42299;35.160;26.100;2022-09-19T05:03:31;18.33;;;7.68;;
56401;SDS011;42299;35.160;26.100;2022-09-19T05:04:54;21.75;;;7.38;;
56401;SDS011;42299;35.160;26.100;2022-09-19T05:06:17;18.45;;;6.90;;
56401;SDS011;42299;35.160;26.100;2022-09-19T05:07:41;21.88;;;7.15;;
56401;SDS011;42299;35.160;26.100;2022-09-19T05:09:03;15.10;;;5.68;;
56401;SDS011;42299;35.160;26.100;2022-09-19T05:10:45;19.55;;;5.35;;
56401;SDS011;42299;35.160;26.100;2022-09-19T05:12:07;21.70;;;6.88;;
56401;SDS011;42299;35.160;26.100;2022-09-19T05:13:35;16.52;;;5.35;;
56401;SDS011;42299;35.160;26.100;2022-09-19T05:15:01;9.18;;;3.00;;
56401;SDS011;42299;35.160;26.100;2022-09-19T05:16:24;6.28;;;1.75;;
56401;SDS011;42299;35.160;26.100;2022-09-19T05:17:53;9.40;;;2.17;;
56401;SDS011;42299;35.160;26.100;2022-09-19T05:19:16;6.57;;;1.60;;
56401;SDS011;42299;35.160;26.100;2022-09-19T05:20:42;10.00;;;2.05;;
56401;SDS011;42299;35.160;26.100;2022-09-19T05:22:04;8.68;;;2.22;;
56401;SDS011;42299;35.160;26.100;2022-09-19T05:23:30;10.10;;;4.45;;
56401;SDS011;42299;35.160;26.100;2022-09-19T05:24:53;14.98;;;5.60;;
56401;SDS011;42299;35.160;26.100;2022-09-19T05:26:15;16.38;;;7.43;;
56401;SDS011;42299;35.160;26.100;2022-09-19T05:27:42;28.60;;;13.75;;
56401;SDS011;42299;35.160;26.100;2022-09-19T05:30:35;30.02;;;11.52;;
56401;SDS011;42299;35.160;26.100;2022-09-19T05:31:58;24.27;;;11.10;;
56401;SDS011;42299;35.160;26.100;2022-09-19T05:33:34;16.90;;;6.32;;
56401;SDS011;42299;35.160;26.100;2022-09-19T05:34:59;14.80;;;4.55;;
56401;SDS011;42299;35.160;26.100;2022-09-19T05:36:41;13.63;;;3.33;;
56401;SDS011;42299;35.160;26.100;2022-09-19T05:38:14;15.10;;;2.80;;
56401;SDS011;42299;35.160;26.100;2022-09-19T05:39:46;8.88;;;2.78;;
56401;SDS011;42299;35.160;26.100;2022-09-19T05:41:41;12.40;;;2.85;;
56401;SDS011;42299;35.160;26.100;2022-09-19T05:43:15;8.23;;;1.52;;
56401;SDS011;42299;35.160;26.100;2022-09-19T05:44:37;9.38;;;2.78;;
56401;SDS011;42299;35.160;26.100;2022-09-19T05:46:00;10.32;;;1.92;;
56401;SDS011;42299;35.160;26.100;2022-09-19T05:47:23;7.05;;;1.75;;
56401;SDS011;42299;35.160;26.100;2022-09-19T05:48:46;5.03;;;1.27;;
56401;SDS011;42299;35.160;26.100;2022-09-19T05:50:09;6.47;;;1.60;;
56401;SDS011;42299;35.160;26.100;2022-09-19T05:51:33;5.38;;;1.75;;
56401;SDS011;42299;35.160;26.100;2022-09-19T05:52:55;9.65;;;1.75;;
56401;SDS011;42299;35.160;26.100;2022-09-19T05:54:35;6.57;;;1.33;;
56401;SDS011;42299;35.160;26.100;2022-09-19T05:56:16;9.77;;;1.77;;
56401;SDS011;42299;35.160;26.100;2022-09-19T05:57:42;8.20;;;1.98;;
56401;SDS011;42299;35.160;26.100;2022-09-19T05:59:10;6.97;;;1.70;;
56401;SDS011;42299;35.160;26.100;2022-09-19T06:00:36;7.80;;;1.55;;
56401;SDS011;42299;35.160;26.100;2022-09-19T06:01:59;8.43;;;1.40;;
56401;SDS011;42299;35.160;26.100;2022-09-19T06:03:35;10.10;;;2.10;;
56401;SDS011;42299;35.160;26.100;2022-09-19T06:05:00;9.57;;;2.05;;
56401;SDS011;42299;35.160;26.100;2022-09-19T06:06:25;9.90;;;2.03;;
56401;SDS011;42299;35.160;26.100;2022-09-19T06:07:48;10.88;;;1.65;;
56401;SDS011;42299;35.160;26.100;2022-09-19T06:09:09;5.68;;;1.60;;
56401;SDS011;42299;35.160;26.100;2022-09-19T06:10:35;9.40;;;1.50;;
56401;SDS011;42299;35.160;26.100;2022-09-19T06:12:00;6.15;;;1.50;;
56401;SDS011;42299;35.160;26.100;2022-09-19T06:13:24;5.30;;;1.40;;
56401;SDS011;42299;35.160;26.100;2022-09-19T06:15:08;6.47;;;1.63;;
56401;SDS011;42299;35.160;26.100;2022-09-19T06:16:30;6.88;;;1.25;;
56401;SDS011;42299;35.160;26.100;2022-09-19T06:18:28;15.38;;;2.10;;
56401;SDS011;42299;35.160;26.100;2022-09-19T06:19:57;4.82;;;1.48;;
56401;SDS011;42299;35.160;26.100;2022-09-19T06:21:40;9.35;;;2.13;;
56401;SDS011;42299;35.160;26.100;2022-09-19T06:23:04;9.25;;;1.52;;
56401;SDS011;42299;35.160;26.100;2022-09-19T06:24:26;7.03;;;1.45;;
56401;SDS011;42299;35.160;26.100;2022-09-19T06:25:49;7.47;;;1.30;;
56401;SDS011;42299;35.160;26.100;2022-09-19T06:27:14;7.90;;;1.50;;
56401;SDS011;42299;35.160;26.100;2022-09-19T06:28:39;8.02;;;1.70;;
56401;SDS011;42299;35.160;26.100;2022-09-19T06:30:03;9.13;;;1.70;;
56401;SDS011;42299;35.160;26.100;2022-09-19T06:31:46;10.48;;;1.95;;
56401;SDS011;42299;35.160;26.100;2022-09-19T06:33:12;8.35;;;1.67;;
56401;SDS011;42299;35.160;26.100;2022-09-19T06:34:48;5.93;;;1.27;;
56401;SDS011;42299;35.160;26.100;2022-09-19T06:36:11;8.18;;;1.63;;
56401;SDS011;42299;35.160;26.100;2022-09-19T06:37:34;6.60;;;1.48;;
56401;SDS011;42299;35.160;26.100;2022-09-19T06:38:59;9.63;;;1.50;;
56401;SDS011;42299;35.160;26.100;2022-09-19T06:40:44;5.50;;;1.30;;
56401;SDS011;42299;35.160;26.100;2022-09-19T06:42:34;5.63;;;1.95;;
56401;SDS011;42299;35.160;26.100;2022-09-19T06:44:14;6.40;;;1.60;;
56401;SDS011;42299;35.160;26.100;2022-09-19T06:45:59;7.05;;;1.55;;
56401;SDS011;42299;35.160;26.100;2022-09-19T06:47:40;7.43;;;1.50;;
56401;SDS011;42299;35.160;26.100;2022-09-19T06:49:10;11.73;;;1.73;;
56401;SDS011;42299;35.160;26.100;2022-09-19T06:50:44;6.50;;;1.40;;
56401;SDS011;42299;35.160;26.100;2022-09-19T06:52:08;7.00;;;1.60;;
56401;SDS011;42299;35.160;26.100;2022-09-19T06:53:31;7.22;;;1.38;;
56401;SDS011;42299;35.160;26.100;2022-09-19T06:54:57;8.18;;;1.67;;
56401;SDS011;42299;35.160;26.100;2022-09-19T06:56:21;7.57;;;1.50;;
56401;SDS011;42299;35.160;26.100;2022-09-19T06:57:45;6.95;;;1.85;;
56401;SDS011;42299;35.160;26.100;2022-09-19T07:00:37;6.78;;;1.42;;
56401;SDS011;42299;35.160;26.100;2022-09-19T07:02:02;8.45;;;1.70;;
56401;SDS011;42299;35.160;26.100;2022-09-19T07:03:24;9.60;;;1.73;;
56401;SDS011;42299;35.160;26.100;2022-09-19T07:04:51;6.80;;;2.00;;
56401;SDS011;42299;35.160;26.100;2022-09-19T07:06:37;5.72;;;1.30;;
56401;SDS011;42299;35.160;26.100;2022-09-19T07:08:06;8.43;;;1.60;;
56401;SDS011;42299;35.160;26.100;2022-09-19T07:09:29;7.28;;;1.63;;
56401;SDS011;42299;35.160;26.100;2022-09-19T07:10:51;7.40;;;1.90;;
56401;SDS011;42299;35.160;26.100;2022-09-19T07:12:15;7.35;;;1.88;;
56401;SDS011;42299;35.160;26.100;2022-09-19T07:13:41;6.75;;;1.65;;
56401;SDS011;42299;35.160;26.100;2022-09-19T07:15:05;7.57;;;1.60;;
56401;SDS011;42299;35.160;26.100;2022-09-19T07:16:27;7.22;;;1.73;;
56401;SDS011;42299;35.160;26.100;2022-09-19T07:17:52;9.48;;;1.92;;
56401;SDS011;42299;35.160;26.100;2022-09-19T07:19:15;9.63;;;2.05;;
56401;SDS011;42299;35.160;26.100;2022-09-19T07:20:44;9.43;;;1.95;;
56401;SDS011;42299;35.160;26.100;2022-09-19T07:22:11;7.60;;;1.88;;
56401;SDS011;42299;35.160;26.100;2022-09-19T07:24:02;10.20;;;1.80;;
56401;SDS011;42299;35.160;26.100;2022-09-19T07:25:46;6.20;;;1.80;;
56401;SDS011;42299;35.160;26.100;2022-09-19T07:27:12;5.57;;;1.50;;
56401;SDS011;42299;35.160;26.100;2022-09-19T07:28:36;7.95;;;2.10;;
56401;SDS011;42299;35.160;26.100;2022-09-19T07:29:59;8.30;;;1.65;;
56401;SDS011;42299;35.160;26.100;2022-09-19T07:31:22;6.88;;;1.60;;
56401;SDS011;42299;35.160;26.100;2022-09-19T07:32:46;5.82;;;1.33;;
56401;SDS011;42299;35.160;26.100;2022-09-19T07:34:09;8.35;;;1.95;;
56401;SDS011;42299;35.160;26.100;2022-09-19T07:35:40;5.30;;;1.55;;
56401;SDS011;42299;35.160;26.100;2022-09-19T07:37:03;6.65;;;1.60;;
56401;SDS011;42299;35.160;26.100;2022-09-19T07:38:26;8.80;;;1.60;;
56401;SDS011;42299;35.160;26.100;2022-09-19T07:40:07;7.80;;;1.90;;
56401;SDS011;42299;35.160;26.100;2022-09-19T07:41:49;8.00;;;1.60;;
56401;SDS011;42299;35.160;26.100;2022-09-19T07:43:30;6.57;;;1.55;;
56401;SDS011;42299;35.160;26.100;2022-09-19T07:45:31;3.88;;;1.40;;
56401;SDS011;42299;35.160;26.100;2022-09-19T07:47:14;7.75;;;2.47;;
56401;SDS011;42299;35.160;26.100;2022-09-19T07:49:21;8.73;;;1.85;;
56401;SDS011;42299;35.160;26.100;2022-09-19T07:51:04;5.45;;;1.60;;
56401;SDS011;42299;35.160;26.100;2022-09-19T07:52:31;7.60;;;1.88;;
56401;SDS011;42299;35.160;26.100;2022-09-19T07:53:53;7.50;;;2.13;;
56401;SDS011;42299;35.160;26.100;2022-09-19T07:55:16;7.55;;;2.00;;
56401;SDS011;42299;35.160;26.100;2022-09-19T07:56:39;8.05;;;1.95;;
56401;SDS011;42299;35.160;26.100;2022-09-19T07:58:02;6.97;;;2.20;;
56401;SDS011;42299;35.160;26.100;2022-09-19T07:59:34;6.03;;;1.90;;
56401;SDS011;42299;35.160;26.100;2022-09-19T08:00:59;7.85;;;1.90;;
56401;SDS011;42299;35.160;26.100;2022-09-19T08:02:52;7.40;;;1.85;;
56401;SDS011;42299;35.160;26.100;2022-09-19T08:04:16;9.63;;;2.05;;
56401;SDS011;42299;35.160;26.100;2022-09-19T08:05:44;6.65;;;1.88;;
56401;SDS011;42299;35.160;26.100;2022-09-19T08:07:08;9.23;;;2.45;;
56401;SDS011;42299;35.160;26.100;2022-09-19T08:08:34;9.27;;;1.98;;
56401;SDS011;42299;35.160;26.100;2022-09-19T08:10:03;8.05;;;1.70;;
56401;SDS011;42299;35.160;26.100;2022-09-19T08:11:28;7.80;;;2.30;;
56401;SDS011;42299;35.160;26.100;2022-09-19T08:12:50;17.42;;;3.65;;
56401;SDS011;42299;35.160;26.100;2022-09-19T08:14:13;8.30;;;2.30;;
56401;SDS011;42299;35.160;26.100;2022-09-19T08:15:36;6.82;;;2.28;;
56401;SDS011;42299;35.160;26.100;2022-09-19T08:17:01;13.77;;;2.40;;
56401;SDS011;42299;35.160;26.100;2022-09-19T08:18:24;11.68;;;2.90;;
56401;SDS011;42299;35.160;26.100;2022-09-19T08:19:48;10.10;;;1.92;;
56401;SDS011;42299;35.160;26.100;2022-09-19T08:21:09;12.40;;;3.03;;
56401;SDS011;42299;35.160;26.100;2022-09-19T08:22:34;13.38;;;3.47;;
56401;SDS011;42299;35.160;26.100;2022-09-19T08:24:01;10.70;;;3.70;;
56401;SDS011;42299;35.160;26.100;2022-09-19T08:25:23;9.48;;;2.42;;
56401;SDS011;42299;35.160;26.100;2022-09-19T08:26:47;13.50;;;3.60;;
56401;SDS011;42299;35.160;26.100;2022-09-19T08:28:11;14.93;;;3.30;;
56401;SDS011;42299;35.160;26.100;2022-09-19T08:29:34;13.40;;;3.00;;
56401;SDS011;42299;35.160;26.100;2022-09-19T08:31:06;12.32;;;3.28;;
56401;SDS011;42299;35.160;26.100;2022-09-19T08:32:34;7.75;;;2.63;;
56401;SDS011;42299;35.160;26.100;2022-09-19T08:33:58;7.78;;;2.10;;
56401;SDS011;42299;35.160;26.100;2022-09-19T08:35:22;11.70;;;2.58;;
56401;SDS011;42299;35.160;26.100;2022-09-19T08:36:48;10.30;;;2.30;;
56401;SDS011;42299;35.160;26.100;2022-09-19T08:38:11;10.00;;;2.20;;
56401;SDS011;42299;35.160;26.100;2022-09-19T08:39:34;8.32;;;2.13;;
56401;SDS011;42299;35.160;26.100;2022-09-19T08:41:24;7.05;;;1.80;;
56401;SDS011;42299;35.160;26.100;2022-09-19T08:43:01;11.27;;;2.42;;
56401;SDS011;42299;35.160;26.100;2022-09-19T08:44:39;13.10;;;2.35;;
56401;SDS011;42299;35.160;26.100;2022-09-19T08:46:13;9.75;;;2.78;;
56401;SDS011;42299;35.160;26.100;2022-09-19T08:47:39;11.48;;;2.58;;
56401;SDS011;42299;35.160;26.100;2022-09-19T08:49:05;11.70;;;2.40;;
56401;SDS011;42299;35.160;26.100;2022-09-19T08:50:35;6.90;;;1.92;;